Time;durP1;ratioP1;P1;durP2;ratioP2;P2;SDS_P1;SDS_P2;PMS_P1;PMS_P2;Temp;Humidity;BMP_temperature;BMP_pressure;BME280_temperature;BME280_humidity;BME280_pressure;Samples;Min_cycle;Max_cycle;Signal;HPM_P1;HPM_P2
2023/07/27 00:02:11;;;;;;;12.05;2.60;;;;;;;;;;4929331;28;20028;-67
2023/07/27 00:04:37;;;;;;;10.35;2.53;;;;;;;;;;4914136;28;20038;-68
2023/07/27 00:07:03;;;;;;;11.25;2.78;;;;;;;;;;4907499;28;20039;-68
2023/07/27 00:09:30;;;;;;;10.88;2.75;;;;;;;;;;4912988;29;20027;-67
2023/07/27 00:11:56;;;;;;;10.40;2.40;;;;;;;;;;4926026;28;20047;-68
2023/07/27 00:14:22;;;;;;;10.23;2.30;;;;;;;;;;4928477;28;20019;-68
2023/07/27 00:16:48;;;;;;;8.88;2.75;;;;;;;;;;4929800;28;20389;-67
2023/07/27 00:19:14;;;;;;;10.10;2.30;;;;;;;;;;4928661;28;20058;-68
2023/07/27 00:21:40;;;;;;;11.15;2.40;;;;;;;;;;4929734;28;20035;-68
2023/07/27 00:24:07;;;;;;;11.27;2.60;;;;;;;;;;4913510;28;20039;-68
2023/07/27 00:26:33;;;;;;;11.77;2.63;;;;;;;;;;4930391;28;20039;-70
2023/07/27 00:28:59;;;;;;;11.15;2.55;;;;;;;;;;4915807;28;20494;-67
2023/07/27 00:31:26;;;;;;;10.70;2.60;;;;;;;;;;4914906;28;20145;-69
2023/07/27 00:33:52;;;;;;;11.35;2.47;;;;;;;;;;4909510;28;20027;-69
2023/07/27 00:36:18;;;;;;;10.48;2.28;;;;;;;;;;4930441;28;20038;-66
2023/07/27 00:38:44;;;;;;;9.93;2.53;;;;;;;;;;4932795;28;20031;-69
2023/07/27 00:41:10;;;;;;;10.85;2.50;;;;;;;;;;4931467;28;20050;-69
2023/07/27 00:43:36;;;;;;;9.20;2.17;;;;;;;;;;4905418;28;20277;-68
2023/07/27 00:46:02;;;;;;;11.23;2.42;;;;;;;;;;4929147;28;20679;-69
2023/07/27 00:48:29;;;;;;;9.05;2.22;;;;;;;;;;4908842;28;20599;-69
2023/07/27 00:50:55;;;;;;;10.80;2.92;;;;;;;;;;4930571;28;20039;-69
2023/07/27 00:53:21;;;;;;;10.18;2.03;;;;;;;;;;4926730;28;20031;-69
2023/07/27 00:55:47;;;;;;;10.48;2.45;;;;;;;;;;4930762;28;20066;-69
2023/07/27 00:58:14;;;;;;;13.77;2.60;;;;;;;;;;4930230;28;20036;-67
2023/07/27 01:00:43;;;;;;;10.95;2.88;;;;;;;;;;4926612;28;20031;-68
2023/07/27 01:03:09;;;;;;;9.35;2.10;;;;;;;;;;4924022;28;20034;-67
2023/07/27 01:05:36;;;;;;;8.93;2.15;;;;;;;;;;4927476;28;20516;-67
2023/07/27 01:08:02;;;;;;;12.30;2.47;;;;;;;;;;4908696;28;20118;-67
2023/07/27 01:10:40;;;;;;;9.98;2.45;;;;;;;;;;4913136;28;20141;-69
2023/07/27 01:13:13;;;;;;;7.82;2.00;;;;;;;;;;4926075;28;20543;-67
2023/07/27 01:15:42;;;;;;;12.18;2.95;;;;;;;;;;4931606;28;20035;-67
2023/07/27 01:18:12;;;;;;;11.85;2.30;;;;;;;;;;4930000;28;20031;-67
2023/07/27 01:20:52;;;;;;;10.85;2.55;;;;;;;;;;4930530;28;20035;-67
2023/07/27 01:23:37;;;;;;;12.07;2.58;;;;;;;;;;4911776;28;20149;-67
2023/07/27 01:26:03;;;;;;;10.02;2.70;;;;;;;;;;4924305;28;20196;-67
2023/07/27 01:28:41;;;;;;;10.15;2.50;;;;;;;;;;4930354;28;20078;-68
2023/07/27 01:31:16;;;;;;;11.10;2.75;;;;;;;;;;4927181;28;20227;-67
2023/07/27 01:33:47;;;;;;;11.07;2.67;;;;;;;;;;4914230;28;20026;-67
2023/07/27 01:36:16;;;;;;;12.05;2.67;;;;;;;;;;4911320;28;20038;-67
2023/07/27 01:38:43;;;;;;;10.80;2.45;;;;;;;;;;4934491;28;20035;-68
2023/07/27 01:41:10;;;;;;;8.95;2.60;;;;;;;;;;4913277;28;20070;-67
2023/07/27 01:43:37;;;;;;;13.32;2.70;;;;;;;;;;4916986;28;20042;-68
2023/07/27 01:46:05;;;;;;;12.00;2.55;;;;;;;;;;4923182;28;20496;-69
2023/07/27 01:48:32;;;;;;;10.45;2.70;;;;;;;;;;4914137;28;20024;-68
2023/07/27 01:50:58;;;;;;;8.20;2.30;;;;;;;;;;4929010;28;20045;-69
2023/07/27 01:53:25;;;;;;;11.02;2.90;;;;;;;;;;4910482;28;20648;-69
2023/07/27 01:55:52;;;;;;;10.05;2.70;;;;;;;;;;4928690;28;20031;-69
2023/07/27 01:58:19;;;;;;;9.20;2.30;;;;;;;;;;4910163;28;20148;-68
2023/07/27 02:00:45;;;;;;;13.57;2.67;;;;;;;;;;4931310;28;20168;-69
2023/07/27 02:03:11;;;;;;;12.82;3.10;;;;;;;;;;4926428;28;20829;-68
2023/07/27 02:05:38;;;;;;;10.07;2.53;;;;;;;;;;4931012;28;20145;-69
2023/07/27 02:08:04;;;;;;;13.32;3.22;;;;;;;;;;4927490;28;20031;-68
2023/07/27 02:10:31;;;;;;;13.90;2.67;;;;;;;;;;4929101;28;20545;-68
2023/07/27 02:13:17;;;;;;;10.25;2.70;;;;;;;;;;4926904;28;20581;-69
2023/07/27 02:15:45;;;;;;;12.98;3.05;;;;;;;;;;4926485;28;20069;-67
2023/07/27 02:18:15;;;;;;;13.05;2.90;;;;;;;;;;4924674;28;20041;-69
2023/07/27 02:20:41;;;;;;;13.38;2.90;;;;;;;;;;4925893;28;20046;-67
2023/07/27 02:23:10;;;;;;;15.43;3.17;;;;;;;;;;4927929;28;20555;-67
2023/07/27 02:25:36;;;;;;;10.73;2.80;;;;;;;;;;4929732;28;20754;-67
2023/07/27 02:28:02;;;;;;;12.50;2.70;;;;;;;;;;4909269;28;20292;-67
2023/07/27 02:30:29;;;;;;;12.48;2.50;;;;;;;;;;4911129;28;20533;-67
2023/07/27 02:32:55;;;;;;;12.77;3.00;;;;;;;;;;4913835;28;20035;-67
2023/07/27 02:35:21;;;;;;;10.93;3.17;;;;;;;;;;4925813;28;20806;-67
2023/07/27 02:37:47;;;;;;;10.65;2.72;;;;;;;;;;4931142;28;20549;-68
2023/07/27 02:40:13;;;;;;;13.63;3.17;;;;;;;;;;4907832;28;20453;-67
2023/07/27 02:42:39;;;;;;;13.70;3.45;;;;;;;;;;4931320;28;20045;-67
2023/07/27 02:45:06;;;;;;;37.78;6.82;;;;;;;;;;4928877;28;20221;-68
2023/07/27 02:47:32;;;;;;;22.08;4.03;;;;;;;;;;4915576;28;20561;-67
2023/07/27 02:49:58;;;;;;;19.40;4.40;;;;;;;;;;4916299;28;20486;-67
2023/07/27 02:52:24;;;;;;;13.30;3.17;;;;;;;;;;4931433;28;20046;-67
2023/07/27 02:54:50;;;;;;;12.73;2.92;;;;;;;;;;4932366;28;20063;-67
2023/07/27 02:57:16;;;;;;;13.25;3.47;;;;;;;;;;4923382;28;20019;-67
2023/07/27 02:59:43;;;;;;;12.93;3.35;;;;;;;;;;4926018;28;20051;-67
2023/07/27 03:02:09;;;;;;;12.95;3.03;;;;;;;;;;4930179;28;20062;-67
2023/07/27 03:04:35;;;;;;;10.45;3.13;;;;;;;;;;4919158;28;20437;-67
2023/07/27 03:07:01;;;;;;;15.05;3.22;;;;;;;;;;4915360;28;20042;-67
2023/07/27 03:09:27;;;;;;;13.30;3.13;;;;;;;;;;4931070;28;20805;-67
2023/07/27 03:11:53;;;;;;;15.02;3.10;;;;;;;;;;4937784;28;20222;-67
2023/07/27 03:14:20;;;;;;;12.75;3.00;;;;;;;;;;4929072;28;20611;-67
2023/07/27 03:16:46;;;;;;;12.65;2.80;;;;;;;;;;4918790;28;20125;-67
2023/07/27 03:19:12;;;;;;;13.57;3.17;;;;;;;;;;4931057;28;20023;-67
2023/07/27 03:21:38;;;;;;;9.48;2.50;;;;;;;;;;4934906;28;20403;-69
2023/07/27 03:24:04;;;;;;;14.85;3.13;;;;;;;;;;4927179;28;20034;-67
2023/07/27 03:26:30;;;;;;;14.63;3.60;;;;;;;;;;4914670;29;20039;-69
2023/07/27 03:28:57;;;;;;;12.65;2.78;;;;;;;;;;4930085;28;20707;-67
2023/07/27 03:31:24;;;;;;;14.20;3.20;;;;;;;;;;4934157;28;20340;-68
2023/07/27 03:33:50;;;;;;;11.38;2.70;;;;;;;;;;4916021;28;20030;-67
2023/07/27 03:36:17;;;;;;;11.93;3.13;;;;;;;;;;4910803;28;20434;-67
2023/07/27 03:38:43;;;;;;;10.40;2.90;;;;;;;;;;4936590;28;20030;-67
2023/07/27 03:41:10;;;;;;;10.90;2.67;;;;;;;;;;4932604;28;20050;-67
2023/07/27 03:43:36;;;;;;;10.88;3.00;;;;;;;;;;4916211;28;20038;-67
2023/07/27 03:46:02;;;;;;;12.60;2.72;;;;;;;;;;4914685;28;20436;-67
2023/07/27 03:48:28;;;;;;;10.50;2.83;;;;;;;;;;4912741;28;20065;-68
2023/07/27 03:50:54;;;;;;;13.48;2.83;;;;;;;;;;4933035;28;20151;-68
2023/07/27 03:53:21;;;;;;;13.52;2.80;;;;;;;;;;4910485;28;20962;-68
2023/07/27 03:55:47;;;;;;;15.65;2.90;;;;;;;;;;4916559;28;20034;-68
2023/07/27 03:58:13;;;;;;;11.48;2.90;;;;;;;;;;4929408;28;20374;-68
2023/07/27 04:00:39;;;;;;;8.52;2.40;;;;;;;;;;4939130;28;20043;-68
2023/07/27 04:03:05;;;;;;;11.32;2.92;;;;;;;;;;4932666;28;20046;-67
2023/07/27 04:05:31;;;;;;;10.77;2.67;;;;;;;;;;4914611;28;20510;-68
2023/07/27 04:07:58;;;;;;;11.13;2.63;;;;;;;;;;4934630;28;20058;-68
2023/07/27 04:10:24;;;;;;;10.75;2.90;;;;;;;;;;4928820;28;20035;-67
2023/07/27 04:12:51;;;;;;;11.95;2.97;;;;;;;;;;4914894;28;20042;-68
2023/07/27 04:15:17;;;;;;;11.48;2.85;;;;;;;;;;4932382;28;20922;-68
2023/07/27 04:17:44;;;;;;;10.52;2.75;;;;;;;;;;4912952;28;20410;-68
2023/07/27 04:20:10;;;;;;;10.68;2.55;;;;;;;;;;4913138;28;20047;-67
2023/07/27 04:22:36;;;;;;;11.52;3.22;;;;;;;;;;4937612;28;20122;-68
2023/07/27 04:25:03;;;;;;;15.27;2.85;;;;;;;;;;4908708;28;20106;-67
2023/07/27 04:27:29;;;;;;;12.10;3.22;;;;;;;;;;4930592;28;20301;-67
2023/07/27 04:29:55;;;;;;;12.25;2.92;;;;;;;;;;4933080;28;20031;-67
2023/07/27 04:32:21;;;;;;;14.90;3.10;;;;;;;;;;4925669;28;20737;-67
2023/07/27 04:34:47;;;;;;;13.45;3.35;;;;;;;;;;4928003;28;20285;-68
2023/07/27 04:37:14;;;;;;;14.57;3.25;;;;;;;;;;4933209;28;20296;-68
2023/07/27 04:39:40;;;;;;;14.57;3.28;;;;;;;;;;4912598;28;20526;-68
2023/07/27 04:42:06;;;;;;;11.07;3.38;;;;;;;;;;4926142;28;20388;-67
2023/07/27 04:44:32;;;;;;;12.07;3.05;;;;;;;;;;4912043;28;20035;-67
2023/07/27 04:46:58;;;;;;;10.45;2.80;;;;;;;;;;4911493;28;20621;-68
2023/07/27 04:49:24;;;;;;;11.70;2.88;;;;;;;;;;4912796;28;20110;-67
2023/07/27 04:51:50;;;;;;;12.57;3.22;;;;;;;;;;4918273;28;20498;-68
2023/07/27 04:54:17;;;;;;;13.63;3.22;;;;;;;;;;4908840;28;20031;-67
2023/07/27 04:56:43;;;;;;;10.65;3.40;;;;;;;;;;4928096;28;21617;-68
2023/07/27 04:59:09;;;;;;;13.07;3.28;;;;;;;;;;4927593;28;20035;-67
2023/07/27 05:01:35;;;;;;;10.43;2.97;;;;;;;;;;4912205;28;20034;-68
2023/07/27 05:04:01;;;;;;;11.52;2.88;;;;;;;;;;4912131;28;20082;-67
2023/07/27 05:06:27;;;;;;;14.40;3.72;;;;;;;;;;4913415;28;20314;-68
2023/07/27 05:08:54;;;;;;;13.35;3.60;;;;;;;;;;4912796;28;20035;-68
2023/07/27 05:11:20;;;;;;;14.02;3.75;;;;;;;;;;4929135;28;20463;-68
2023/07/27 05:13:46;;;;;;;14.20;3.38;;;;;;;;;;4914871;28;20113;-68
2023/07/27 05:16:12;;;;;;;14.63;3.67;;;;;;;;;;4929401;28;20038;-68
2023/07/27 05:18:38;;;;;;;12.90;3.60;;;;;;;;;;4913460;29;20023;-68
2023/07/27 05:21:04;;;;;;;14.77;3.88;;;;;;;;;;4927438;28;20130;-68
2023/07/27 05:23:30;;;;;;;19.30;3.50;;;;;;;;;;4914384;28;20105;-68
2023/07/27 05:25:56;;;;;;;17.00;3.83;;;;;;;;;;4913144;28;20122;-67
2023/07/27 05:28:23;;;;;;;20.08;4.25;;;;;;;;;;4924642;28;20027;-67
2023/07/27 05:30:49;;;;;;;19.85;3.80;;;;;;;;;;4928509;28;20541;-68
2023/07/27 05:33:15;;;;;;;14.65;4.32;;;;;;;;;;4913765;28;20158;-68
2023/07/27 05:35:41;;;;;;;13.77;4.35;;;;;;;;;;4930630;28;20046;-67
2023/07/27 05:38:07;;;;;;;13.93;4.10;;;;;;;;;;4921790;28;20351;-68
2023/07/27 05:40:36;;;;;;;12.27;4.05;;;;;;;;;;4914277;28;20023;-68
2023/07/27 05:43:02;;;;;;;10.68;3.25;;;;;;;;;;4908582;28;20050;-67
2023/07/27 05:45:28;;;;;;;12.63;3.58;;;;;;;;;;4912809;28;20330;-67
2023/07/27 05:47:54;;;;;;;13.70;4.00;;;;;;;;;;4931009;28;20633;-67
2023/07/27 05:50:20;;;;;;;10.23;3.17;;;;;;;;;;4927015;28;21333;-67
2023/07/27 05:52:47;;;;;;;11.68;3.67;;;;;;;;;;4928331;28;20535;-67
2023/07/27 05:55:13;;;;;;;13.05;3.30;;;;;;;;;;4926986;28;20029;-67
2023/07/27 05:57:41;;;;;;;15.23;3.00;;;;;;;;;;4926851;28;20150;-67
2023/07/27 06:00:08;;;;;;;12.50;2.83;;;;;;;;;;4925906;28;20426;-67
2023/07/27 06:02:35;;;;;;;13.70;3.17;;;;;;;;;;4934900;28;20035;-68
2023/07/27 06:05:01;;;;;;;14.30;3.25;;;;;;;;;;4928218;28;20043;-68
2023/07/27 06:07:28;;;;;;;15.05;3.85;;;;;;;;;;4925270;28;20057;-67
2023/07/27 06:09:54;;;;;;;12.00;3.08;;;;;;;;;;4928734;28;20309;-68
2023/07/27 06:12:20;;;;;;;14.57;3.28;;;;;;;;;;4924678;28;20125;-68
2023/07/27 06:14:46;;;;;;;12.55;3.95;;;;;;;;;;4914631;28;20548;-68
2023/07/27 06:17:12;;;;;;;12.63;3.92;;;;;;;;;;4910090;28;20163;-67
2023/07/27 06:19:38;;;;;;;12.00;3.88;;;;;;;;;;4930696;28;20019;-68
2023/07/27 06:22:05;;;;;;;16.50;4.25;;;;;;;;;;4928742;28;21300;-68
2023/07/27 06:24:31;;;;;;;11.70;3.83;;;;;;;;;;4914010;28;20036;-68
2023/07/27 06:26:57;;;;;;;13.30;3.35;;;;;;;;;;4915814;28;20279;-68
2023/07/27 06:29:23;;;;;;;14.18;3.40;;;;;;;;;;4910598;28;20435;-68
2023/07/27 06:31:49;;;;;;;12.90;3.03;;;;;;;;;;4933847;28;20034;-68
2023/07/27 06:34:16;;;;;;;10.15;3.03;;;;;;;;;;4930825;28;20218;-67
2023/07/27 06:36:42;;;;;;;16.00;3.70;;;;;;;;;;4931080;28;20771;-68
2023/07/27 06:39:08;;;;;;;12.02;3.22;;;;;;;;;;4907421;28;20435;-67
2023/07/27 06:41:35;;;;;;;15.55;3.33;;;;;;;;;;4931282;28;20042;-68
2023/07/27 06:44:01;;;;;;;12.18;3.28;;;;;;;;;;4928793;28;20106;-67
2023/07/27 06:46:27;;;;;;;13.55;3.97;;;;;;;;;;4918664;28;20038;-67
2023/07/27 06:48:53;;;;;;;14.43;3.20;;;;;;;;;;4933302;28;20034;-67
2023/07/27 06:51:20;;;;;;;10.50;2.80;;;;;;;;;;4915957;28;20277;-67
2023/07/27 06:53:46;;;;;;;12.30;2.88;;;;;;;;;;4931384;28;20039;-68
2023/07/27 06:56:12;;;;;;;15.05;3.63;;;;;;;;;;4914501;28;20594;-67
2023/07/27 06:58:38;;;;;;;13.57;3.55;;;;;;;;;;4935519;28;20043;-68
2023/07/27 07:01:04;;;;;;;13.63;3.10;;;;;;;;;;4928463;28;20368;-68
2023/07/27 07:03:30;;;;;;;10.63;2.80;;;;;;;;;;4933921;28;20054;-69
2023/07/27 07:05:56;;;;;;;9.13;3.25;;;;;;;;;;4933119;28;20050;-70
2023/07/27 07:08:23;;;;;;;10.88;2.92;;;;;;;;;;4929662;28;20062;-65
2023/07/27 07:10:49;;;;;;;11.57;3.13;;;;;;;;;;4931225;28;20019;-70
2023/07/27 07:13:15;;;;;;;12.43;2.90;;;;;;;;;;4933990;28;20676;-69
2023/07/27 07:15:42;;;;;;;11.52;2.67;;;;;;;;;;4923147;28;20034;-69
2023/07/27 07:18:09;;;;;;;10.68;2.50;;;;;;;;;;4933006;28;20481;-69
2023/07/27 07:20:35;;;;;;;11.23;2.70;;;;;;;;;;4934497;28;20815;-69
2023/07/27 07:23:01;;;;;;;12.82;2.90;;;;;;;;;;4927413;28;20027;-69
2023/07/27 07:25:27;;;;;;;12.00;2.90;;;;;;;;;;4918005;28;20070;-69
2023/07/27 07:27:53;;;;;;;11.35;2.47;;;;;;;;;;4919435;28;20484;-70
2023/07/27 07:30:19;;;;;;;9.18;2.30;;;;;;;;;;4927196;28;20027;-69
2023/07/27 07:32:46;;;;;;;10.57;2.72;;;;;;;;;;4936482;28;20032;-69
2023/07/27 07:35:12;;;;;;;9.80;2.50;;;;;;;;;;4915367;28;20355;-69
2023/07/27 07:37:38;;;;;;;14.23;2.65;;;;;;;;;;4936859;28;20031;-68
2023/07/27 07:40:05;;;;;;;9.85;2.47;;;;;;;;;;4936130;28;20066;-68
2023/07/27 07:42:32;;;;;;;11.05;2.80;;;;;;;;;;4932746;28;20039;-68
2023/07/27 07:44:58;;;;;;;11.02;2.78;;;;;;;;;;4935812;28;20023;-68
2023/07/27 07:47:24;;;;;;;11.23;2.90;;;;;;;;;;4913175;28;20040;-68
2023/07/27 07:49:50;;;;;;;9.60;2.40;;;;;;;;;;4933180;28;20028;-70
2023/07/27 07:52:16;;;;;;;12.20;2.70;;;;;;;;;;4913432;28;20062;-68
2023/07/27 07:54:42;;;;;;;10.82;2.58;;;;;;;;;;4929806;28;20110;-68
2023/07/27 07:57:09;;;;;;;10.25;2.35;;;;;;;;;;4908101;28;20027;-68
2023/07/27 07:59:35;;;;;;;10.40;2.42;;;;;;;;;;4921470;28;20027;-68
2023/07/27 08:02:02;;;;;;;9.05;2.50;;;;;;;;;;4911606;28;20048;-68
2023/07/27 08:04:30;;;;;;;11.05;2.58;;;;;;;;;;4911777;28;20043;-69
2023/07/27 08:06:56;;;;;;;9.90;2.38;;;;;;;;;;4916869;28;20101;-68
2023/07/27 08:09:22;;;;;;;10.40;2.30;;;;;;;;;;4913531;28;20667;-70
2023/07/27 08:11:49;;;;;;;9.70;2.63;;;;;;;;;;4919670;28;20035;-68
2023/07/27 08:14:15;;;;;;;10.55;2.53;;;;;;;;;;4930202;28;20468;-68
2023/07/27 08:16:41;;;;;;;9.25;2.30;;;;;;;;;;4934607;28;20027;-68
2023/07/27 08:19:07;;;;;;;12.15;2.70;;;;;;;;;;4917426;28;20830;-69
2023/07/27 08:21:33;;;;;;;10.98;2.72;;;;;;;;;;4916899;28;20035;-68
2023/07/27 08:23:59;;;;;;;8.20;2.28;;;;;;;;;;4932624;28;20046;-68
2023/07/27 08:26:25;;;;;;;10.57;2.75;;;;;;;;;;4927516;28;20027;-68
2023/07/27 08:28:52;;;;;;;8.45;2.13;;;;;;;;;;4935218;28;20038;-69
2023/07/27 08:31:18;;;;;;;10.60;2.10;;;;;;;;;;4926963;28;20085;-68
2023/07/27 08:33:44;;;;;;;10.55;2.50;;;;;;;;;;4914100;28;20031;-68
2023/07/27 08:36:10;;;;;;;6.72;2.10;;;;;;;;;;4909628;28;20524;-68
2023/07/27 08:38:36;;;;;;;7.30;2.22;;;;;;;;;;4929871;28;20030;-68
2023/07/27 08:41:02;;;;;;;9.70;2.50;;;;;;;;;;4908209;28;20059;-65
2023/07/27 08:43:29;;;;;;;8.30;2.28;;;;;;;;;;4931159;28;20720;-65
2023/07/27 08:45:55;;;;;;;12.13;2.30;;;;;;;;;;4911534;28;20038;-65
2023/07/27 08:48:24;;;;;;;9.45;2.10;;;;;;;;;;4913968;28;20796;-65
2023/07/27 08:50:50;;;;;;;12.93;2.28;;;;;;;;;;4915071;28;20133;-65
2023/07/27 08:53:16;;;;;;;9.77;2.50;;;;;;;;;;4909928;28;20457;-65
2023/07/27 08:55:43;;;;;;;9.18;2.20;;;;;;;;;;4917040;28;20028;-66
2023/07/27 08:58:09;;;;;;;8.75;2.10;;;;;;;;;;4928912;28;20138;-66
2023/07/27 09:00:38;;;;;;;9.40;2.40;;;;;;;;;;4930033;28;20051;-65
2023/07/27 09:03:05;;;;;;;8.50;2.08;;;;;;;;;;4915342;28;20473;-66
2023/07/27 09:05:42;;;;;;;7.47;2.08;;;;;;;;;;4931658;28;20031;-65
2023/07/27 09:08:09;;;;;;;9.32;2.80;;;;;;;;;;4926897;28;20032;-65
2023/07/27 09:10:36;;;;;;;10.15;2.50;;;;;;;;;;4912853;28;20520;-65
2023/07/27 09:13:03;;;;;;;8.95;2.30;;;;;;;;;;4915457;28;20509;-65
2023/07/27 09:15:30;;;;;;;11.00;2.30;;;;;;;;;;4930722;28;20042;-65
2023/07/27 09:17:58;;;;;;;6.80;2.17;;;;;;;;;;4918616;28;20034;-64
2023/07/27 09:20:25;;;;;;;8.07;2.22;;;;;;;;;;4926185;28;20472;-65
2023/07/27 09:22:51;;;;;;;9.82;2.30;;;;;;;;;;4928123;28;20478;-65
2023/07/27 09:25:23;;;;;;;8.95;2.40;;;;;;;;;;4928691;28;20027;-65
2023/07/27 09:27:55;;;;;;;11.00;2.38;;;;;;;;;;4928713;28;20039;-65
2023/07/27 09:30:22;;;;;;;8.40;2.15;;;;;;;;;;4924449;28;20133;-65
2023/07/27 09:32:48;;;;;;;9.02;2.38;;;;;;;;;;4930890;28;20035;-66
2023/07/27 09:35:15;;;;;;;9.52;2.30;;;;;;;;;;4910029;28;20035;-65
2023/07/27 09:37:45;;;;;;;10.48;2.65;;;;;;;;;;4915828;28;20392;-66
2023/07/27 09:40:13;;;;;;;9.50;2.50;;;;;;;;;;4924748;28;20042;-66
2023/07/27 09:42:40;;;;;;;8.73;2.30;;;;;;;;;;4930394;28;20035;-65
2023/07/27 09:45:07;;;;;;;10.07;2.67;;;;;;;;;;4927439;28;20038;-65
2023/07/27 09:47:33;;;;;;;7.25;2.33;;;;;;;;;;4929111;28;20151;-65
2023/07/27 09:50:00;;;;;;;11.38;2.47;;;;;;;;;;4912878;29;20062;-66
2023/07/27 09:52:27;;;;;;;9.57;2.20;;;;;;;;;;4914358;28;20042;-66
2023/07/27 09:54:58;;;;;;;8.82;2.15;;;;;;;;;;4911809;28;20038;-65
2023/07/27 09:57:24;;;;;;;9.90;2.33;;;;;;;;;;4922385;28;20203;-66
2023/07/27 09:59:51;;;;;;;9.93;2.45;;;;;;;;;;4933537;28;20119;-66
2023/07/27 10:02:17;;;;;;;7.93;2.17;;;;;;;;;;4931892;28;20038;-65
2023/07/27 10:04:45;;;;;;;8.43;2.10;;;;;;;;;;4930902;28;20087;-66
2023/07/27 10:07:11;;;;;;;11.35;2.42;;;;;;;;;;4927543;28;20035;-66
2023/07/27 10:09:38;;;;;;;10.18;2.60;;;;;;;;;;4927523;28;20591;-66
2023/07/27 10:12:04;;;;;;;7.97;2.25;;;;;;;;;;4929435;28;20478;-68
2023/07/27 10:14:31;;;;;;;10.25;2.40;;;;;;;;;;4933059;28;20380;-66
2023/07/27 10:17:07;;;;;;;10.57;2.20;;;;;;;;;;4935223;28;20034;-66
2023/07/27 10:19:43;;;;;;;11.32;2.40;;;;;;;;;;4918045;28;20442;-66
2023/07/27 10:22:12;;;;;;;7.90;2.00;;;;;;;;;;4929189;28;20042;-67
2023/07/27 10:24:57;;;;;;;10.40;2.13;;;;;;;;;;4928389;28;20066;-66
2023/07/27 10:27:23;;;;;;;11.50;2.73;;;;;;;;;;4929173;28;20340;-66
2023/07/27 10:29:54;;;;;;;10.48;2.20;;;;;;;;;;4913543;28;20514;-66
2023/07/27 10:32:20;;;;;;;8.95;2.40;;;;;;;;;;4913939;28;20050;-66
2023/07/27 10:34:50;;;;;;;7.78;1.98;;;;;;;;;;4932074;28;20056;-66
2023/07/27 10:37:16;;;;;;;8.65;2.42;;;;;;;;;;4910406;28;20028;-65
2023/07/27 10:39:44;;;;;;;12.30;2.78;;;;;;;;;;4923395;28;20658;-65
2023/07/27 10:42:12;;;;;;;8.80;2.53;;;;;;;;;;4908159;28;20498;-65
2023/07/27 10:44:45;;;;;;;12.25;2.78;;;;;;;;;;4933787;28;20031;-65
2023/07/27 10:47:12;;;;;;;9.05;2.03;;;;;;;;;;4910161;28;20138;-65
2023/07/27 10:49:39;;;;;;;8.55;2.75;;;;;;;;;;4929509;28;20042;-65
2023/07/27 10:52:06;;;;;;;9.50;2.53;;;;;;;;;;4912044;28;20142;-65
2023/07/27 10:54:37;;;;;;;6.70;1.88;;;;;;;;;;4915227;28;20500;-65
2023/07/27 10:57:04;;;;;;;11.18;2.30;;;;;;;;;;4927569;28;20031;-64
2023/07/27 10:59:31;;;;;;;9.55;2.42;;;;;;;;;;4932129;28;20042;-65
2023/07/27 11:01:57;;;;;;;8.77;2.35;;;;;;;;;;4930202;28;20486;-65
2023/07/27 11:04:24;;;;;;;9.02;2.30;;;;;;;;;;4925879;28;20031;-67
2023/07/27 11:06:50;;;;;;;8.82;2.30;;;;;;;;;;4912869;28;20055;-67
2023/07/27 11:09:17;;;;;;;8.73;2.40;;;;;;;;;;4929162;28;20035;-66
2023/07/27 11:11:44;;;;;;;8.55;2.47;;;;;;;;;;4938476;28;20503;-66
2023/07/27 11:14:11;;;;;;;8.85;2.35;;;;;;;;;;4917561;28;20039;-66
2023/07/27 11:16:38;;;;;;;9.38;2.40;;;;;;;;;;4921745;28;20072;-67
2023/07/27 11:19:05;;;;;;;9.57;2.22;;;;;;;;;;4936350;28;20103;-66
2023/07/27 11:21:32;;;;;;;8.90;2.30;;;;;;;;;;4915588;28;20046;-66
2023/07/27 11:23:59;;;;;;;7.78;2.38;;;;;;;;;;4933260;28;20253;-66
2023/07/27 11:26:28;;;;;;;7.95;2.20;;;;;;;;;;4927809;28;20087;-66
2023/07/27 11:28:55;;;;;;;9.65;2.40;;;;;;;;;;4917298;28;20562;-66
2023/07/27 11:31:22;;;;;;;9.93;2.38;;;;;;;;;;4917276;28;21780;-66
2023/07/27 11:33:48;;;;;;;9.93;2.40;;;;;;;;;;4918155;28;20030;-67
2023/07/27 11:36:15;;;;;;;7.40;2.10;;;;;;;;;;4908818;28;20597;-67
2023/07/27 11:38:41;;;;;;;6.88;1.98;;;;;;;;;;4931532;28;20095;-66
2023/07/27 11:41:07;;;;;;;9.60;2.10;;;;;;;;;;4915988;28;20139;-66
2023/07/27 11:43:34;;;;;;;8.65;2.20;;;;;;;;;;4920968;28;20462;-67
2023/07/27 11:46:01;;;;;;;9.45;2.33;;;;;;;;;;4930946;28;20191;-67
2023/07/27 11:48:32;;;;;;;9.35;2.42;;;;;;;;;;4931730;28;20212;-67
2023/07/27 11:50:59;;;;;;;7.65;2.38;;;;;;;;;;4920564;28;20799;-66
2023/07/27 11:53:28;;;;;;;8.82;2.45;;;;;;;;;;4912577;28;20525;-67
2023/07/27 11:55:54;;;;;;;7.47;2.33;;;;;;;;;;4933713;28;20066;-67
2023/07/27 11:58:20;;;;;;;7.88;1.85;;;;;;;;;;4913564;28;20617;-65
2023/07/27 12:00:50;;;;;;;10.02;2.25;;;;;;;;;;4932724;28;20031;-66
2023/07/27 12:03:18;;;;;;;8.70;2.28;;;;;;;;;;4929075;28;20107;-66
2023/07/27 12:05:44;;;;;;;9.10;2.30;;;;;;;;;;4933817;28;20533;-66
2023/07/27 12:08:11;;;;;;;7.82;1.85;;;;;;;;;;4915393;28;20042;-66
2023/07/27 12:10:37;;;;;;;7.40;2.03;;;;;;;;;;4933558;28;20122;-66
2023/07/27 12:13:05;;;;;;;10.13;2.20;;;;;;;;;;4924956;28;20043;-66
2023/07/27 12:15:32;;;;;;;10.77;2.10;;;;;;;;;;4913847;28;20032;-66
2023/07/27 12:18:02;;;;;;;9.82;2.70;;;;;;;;;;4915321;28;20491;-66
2023/07/27 12:20:30;;;;;;;8.30;2.17;;;;;;;;;;4910176;28;20280;-66
2023/07/27 12:22:59;;;;;;;11.30;2.47;;;;;;;;;;4909916;28;20491;-66
2023/07/27 12:25:26;;;;;;;8.90;2.28;;;;;;;;;;4926424;28;20055;-66
2023/07/27 12:27:53;;;;;;;8.65;2.08;;;;;;;;;;4930106;28;20027;-66
2023/07/27 12:30:19;;;;;;;7.35;2.30;;;;;;;;;;4907596;28;20031;-66
2023/07/27 12:32:48;;;;;;;7.55;2.22;;;;;;;;;;4929317;28;20058;-66
2023/07/27 12:35:15;;;;;;;8.73;2.00;;;;;;;;;;4908881;28;20098;-65
2023/07/27 12:37:43;;;;;;;7.05;2.10;;;;;;;;;;4926957;28;20034;-67
2023/07/27 12:40:09;;;;;;;8.15;2.42;;;;;;;;;;4917245;28;20046;-66
2023/07/27 12:42:35;;;;;;;8.80;2.08;;;;;;;;;;4911203;28;20051;-67
2023/07/27 12:45:02;;;;;;;9.80;2.10;;;;;;;;;;4926847;28;20027;-65
2023/07/27 12:47:28;;;;;;;7.30;2.10;;;;;;;;;;4928597;28;20038;-66
2023/07/27 12:49:54;;;;;;;9.63;2.22;;;;;;;;;;4910457;28;20038;-65
2023/07/27 12:52:21;;;;;;;6.28;1.90;;;;;;;;;;4924435;28;22366;-66
2023/07/27 12:54:47;;;;;;;7.53;1.85;;;;;;;;;;4913827;28;20074;-66
2023/07/27 12:57:13;;;;;;;6.78;2.10;;;;;;;;;;4912327;28;20035;-66
2023/07/27 12:59:40;;;;;;;7.70;2.10;;;;;;;;;;4908160;28;20532;-67
2023/07/27 13:02:07;;;;;;;6.68;1.95;;;;;;;;;;4926609;28;20039;-67
2023/07/27 13:04:33;;;;;;;8.02;2.10;;;;;;;;;;4931887;28;20365;-67
2023/07/27 13:07:00;;;;;;;8.50;2.15;;;;;;;;;;4927940;28;20097;-66
2023/07/27 13:09:27;;;;;;;9.50;2.03;;;;;;;;;;4907326;28;20056;-66
2023/07/27 13:11:53;;;;;;;10.07;2.20;;;;;;;;;;4924481;28;20078;-67
2023/07/27 13:14:19;;;;;;;7.85;2.00;;;;;;;;;;4921226;28;20073;-66
2023/07/27 13:16:46;;;;;;;5.97;1.70;;;;;;;;;;4907607;28;20592;-66
2023/07/27 13:19:12;;;;;;;6.60;2.08;;;;;;;;;;4906728;28;20042;-67
2023/07/27 13:21:38;;;;;;;8.32;2.20;;;;;;;;;;4928264;28;20027;-65
2023/07/27 13:24:04;;;;;;;8.82;2.25;;;;;;;;;;4902626;28;20040;-66
2023/07/27 13:26:31;;;;;;;7.07;1.90;;;;;;;;;;4929365;28;20049;-68
2023/07/27 13:28:57;;;;;;;7.07;1.83;;;;;;;;;;4929697;28;20134;-65
2023/07/27 13:31:23;;;;;;;6.88;2.10;;;;;;;;;;4926323;28;20020;-66
2023/07/27 13:33:50;;;;;;;7.97;2.15;;;;;;;;;;4930386;28;20390;-65
2023/07/27 13:36:16;;;;;;;7.97;1.80;;;;;;;;;;4924594;28;20493;-66
2023/07/27 13:38:43;;;;;;;7.70;1.80;;;;;;;;;;4926742;28;20023;-66
2023/07/27 13:41:09;;;;;;;7.70;1.73;;;;;;;;;;4919527;28;20039;-68
2023/07/27 13:43:35;;;;;;;7.13;1.90;;;;;;;;;;4930469;28;20028;-66
2023/07/27 13:46:01;;;;;;;9.05;1.90;;;;;;;;;;4925783;28;20027;-65
2023/07/27 13:48:28;;;;;;;9.95;2.00;;;;;;;;;;4910710;28;20039;-67
2023/07/27 13:50:54;;;;;;;6.68;1.77;;;;;;;;;;4925557;28;20054;-67
2023/07/27 13:53:21;;;;;;;7.70;1.95;;;;;;;;;;4903669;28;20038;-67
2023/07/27 13:55:49;;;;;;;6.45;1.90;;;;;;;;;;4913154;28;20022;-67
2023/07/27 13:58:16;;;;;;;7.45;1.90;;;;;;;;;;4926859;28;20368;-67
2023/07/27 14:00:43;;;;;;;8.07;1.80;;;;;;;;;;4924903;28;20027;-67
2023/07/27 14:03:09;;;;;;;6.80;1.90;;;;;;;;;;4903963;28;20043;-67
2023/07/27 14:05:35;;;;;;;8.00;1.88;;;;;;;;;;4909352;28;20455;-68
2023/07/27 14:08:02;;;;;;;10.13;2.22;;;;;;;;;;4900225;28;20137;-65
2023/07/27 14:10:28;;;;;;;8.88;2.03;;;;;;;;;;4929134;28;20055;-65
2023/07/27 14:12:54;;;;;;;7.03;1.83;;;;;;;;;;4928355;28;20030;-66
2023/07/27 14:15:21;;;;;;;7.18;1.75;;;;;;;;;;4921860;28;20347;-66
2023/07/27 14:17:47;;;;;;;7.97;2.05;;;;;;;;;;4928524;28;20066;-66
2023/07/27 14:20:13;;;;;;;7.90;1.90;;;;;;;;;;4925922;28;20032;-66
2023/07/27 14:22:39;;;;;;;8.15;2.40;;;;;;;;;;4923923;28;20302;-66
2023/07/27 14:25:06;;;;;;;6.97;1.92;;;;;;;;;;4921632;28;20111;-66
2023/07/27 14:27:32;;;;;;;8.23;1.90;;;;;;;;;;4928861;28;20031;-66
2023/07/27 14:29:59;;;;;;;6.30;1.75;;;;;;;;;;4925508;28;20062;-67
2023/07/27 14:32:27;;;;;;;8.10;1.90;;;;;;;;;;4916395;28;20024;-67
2023/07/27 14:34:54;;;;;;;7.07;1.70;;;;;;;;;;4925201;28;20034;-67